Terminal Aerodrome Forecast
Issued by NWS

Home | Current Version | Previous Version | Text Only | Print | Product List | Glossary On
Versions: 1 2 3 4 5 6 7 8 9 10 11 12 13 14 15
000
FTUS42 KTBW 240520
TAFRSW
TAF
KRSW 240520Z 2406/2506 VRB05KT 6SM SHRA SCT020 OVC100
      TEMPO 2406/2410 3SM TSRA BKN020CB
     FM241000 VRB05KT P6SM VCSH SCT020 BKN080
     FM241600 27007KT P6SM VCTS SCT025CB BKN060
     FM242300 32007KT P6SM SCT030 BKN050
     FM250400 35006KT P6SM FEW030 SCT050=

USA.gov is the U.S. government's official web portal to all federal, state and local government web resources and services.